Time;durP1;ratioP1;P1;durP2;ratioP2;P2;SDS_P1;SDS_P2;PMS_P1;PMS_P2;Temp;Humidity;BMP_temperature;BMP_pressure;BME280_temperature;BME280_humidity;BME280_pressure;Samples;Min_cycle;Max_cycle;Signal;HPM_P1;HPM_P2
2022/01/11 00:00:10;;;;;;;20.08;10.75;;;;;;;;;;5082303;28;20026;-85
2022/01/11 00:02:40;;;;;;;18.77;11.07;;;;;;;;;;5084951;28;20032;-85
2022/01/11 00:05:06;;;;;;;19.52;11.05;;;;;;;;;;5084764;28;20644;-83
2022/01/11 00:07:33;;;;;;;18.40;9.70;;;;;;;;;;5084297;28;20028;-85
2022/01/11 00:10:00;;;;;;;17.58;9.80;;;;;;;;;;5086763;28;20020;-89
2022/01/11 00:12:26;;;;;;;20.55;10.65;;;;;;;;;;5089990;28;20452;-86
2022/01/11 00:14:51;;;;;;;22.63;11.25;;;;;;;;;;5101963;28;20047;-84
2022/01/11 00:17:16;;;;;;;20.35;10.75;;;;;;;;;;5080115;28;20034;-86
2022/01/11 00:19:43;;;;;;;19.63;10.80;;;;;;;;;;5083063;28;20115;-85
2022/01/11 00:22:16;;;;;;;20.35;10.52;;;;;;;;;;5077053;28;20024;-88
2022/01/11 00:24:41;;;;;;;20.00;10.93;;;;;;;;;;5072424;28;20807;-84
2022/01/11 00:27:09;;;;;;;22.33;11.05;;;;;;;;;;5072375;28;20064;-85
2022/01/11 00:29:40;;;;;;;21.52;10.40;;;;;;;;;;5078283;28;20094;-89
2022/01/11 00:32:10;;;;;;;20.90;10.95;;;;;;;;;;5072935;28;20025;-88
2022/01/11 00:34:55;;;;;;;21.70;11.02;;;;;;;;;;5084670;28;20028;-89
2022/01/11 00:37:21;;;;;;;19.75;10.23;;;;;;;;;;5076320;28;20020;-87
2022/01/11 00:39:49;;;;;;;21.83;11.63;;;;;;;;;;5085560;28;20499;-83
2022/01/11 00:42:16;;;;;;;21.02;11.32;;;;;;;;;;5076869;28;22654;-87
2022/01/11 00:44:41;;;;;;;22.10;11.02;;;;;;;;;;5070865;28;20089;-84
2022/01/11 00:47:07;;;;;;;22.60;11.43;;;;;;;;;;5078543;28;20036;-84
2022/01/11 00:49:34;;;;;;;21.38;11.25;;;;;;;;;;5075312;28;20135;-87
2022/01/11 00:52:00;;;;;;;20.98;10.95;;;;;;;;;;5076303;28;20039;-83
2022/01/11 00:54:25;;;;;;;21.35;11.15;;;;;;;;;;5078377;28;20028;-84
2022/01/11 00:56:51;;;;;;;23.08;12.00;;;;;;;;;;5070854;28;20558;-86
2022/01/11 00:59:16;;;;;;;25.13;12.23;;;;;;;;;;5073543;28;20062;-86
2022/01/11 01:01:41;;;;;;;19.08;10.43;;;;;;;;;;5075863;28;20127;-83
2022/01/11 01:04:08;;;;;;;21.25;11.95;;;;;;;;;;5075772;28;20035;-86
2022/01/11 01:06:34;;;;;;;19.60;11.15;;;;;;;;;;5070768;28;20041;-85
2022/01/11 01:08:59;;;;;;;21.98;11.48;;;;;;;;;;5071913;28;20042;-89
2022/01/11 01:11:25;;;;;;;19.20;9.95;;;;;;;;;;5076441;28;20374;-89
2022/01/11 01:13:51;;;;;;;25.60;12.77;;;;;;;;;;5078520;28;20052;-84
2022/01/11 01:16:16;;;;;;;22.77;11.02;;;;;;;;;;5078577;28;20771;-86
2022/01/11 01:18:41;;;;;;;21.45;11.07;;;;;;;;;;5078848;28;20489;-86
2022/01/11 01:21:07;;;;;;;21.65;11.43;;;;;;;;;;5078282;28;20056;-88
2022/01/11 01:23:33;;;;;;;21.52;10.25;;;;;;;;;;5079795;28;20040;-85
2022/01/11 01:25:59;;;;;;;23.25;11.73;;;;;;;;;;5075788;28;20028;-90
2022/01/11 01:28:25;;;;;;;22.42;11.82;;;;;;;;;;5083646;28;20056;-89
2022/01/11 01:30:52;;;;;;;23.35;12.43;;;;;;;;;;5075891;28;20047;-89
2022/01/11 01:33:18;;;;;;;23.83;12.02;;;;;;;;;;5077227;28;20024;-85
2022/01/11 01:35:50;;;;;;;23.40;10.90;;;;;;;;;;5073912;28;20031;-83
2022/01/11 01:38:21;;;;;;;22.60;11.73;;;;;;;;;;5075142;28;20021;-83
2022/01/11 01:40:47;;;;;;;20.45;11.68;;;;;;;;;;5078844;28;20032;-86
2022/01/11 01:43:13;;;;;;;26.15;12.18;;;;;;;;;;5085084;28;20532;-83
2022/01/11 01:45:40;;;;;;;21.83;11.30;;;;;;;;;;5074149;28;20059;-88
2022/01/11 01:48:07;;;;;;;22.23;11.80;;;;;;;;;;5077217;28;20036;-90
2022/01/11 01:50:34;;;;;;;22.10;10.93;;;;;;;;;;5081147;28;20092;-86
2022/01/11 01:53:02;;;;;;;26.10;12.38;;;;;;;;;;5074840;28;20028;-90
2022/01/11 01:55:28;;;;;;;25.27;12.10;;;;;;;;;;5072518;28;20086;-85
2022/01/11 01:57:53;;;;;;;21.75;10.93;;;;;;;;;;5074608;28;23312;-83
2022/01/11 02:00:20;;;;;;;21.63;10.95;;;;;;;;;;5081733;28;20020;-83
2022/01/11 02:02:46;;;;;;;22.05;11.43;;;;;;;;;;5079829;28;20130;-85
2022/01/11 02:05:12;;;;;;;25.83;12.73;;;;;;;;;;5078868;28;20104;-85
2022/01/11 02:07:37;;;;;;;25.90;12.25;;;;;;;;;;5078849;28;20035;-83
2022/01/11 02:10:05;;;;;;;24.85;11.02;;;;;;;;;;5079092;28;20046;-85
2022/01/11 02:12:31;;;;;;;23.63;10.85;;;;;;;;;;5078319;28;20052;-85
2022/01/11 02:14:57;;;;;;;23.83;12.05;;;;;;;;;;5077460;28;20070;-89
2022/01/11 02:17:26;;;;;;;22.20;11.52;;;;;;;;;;5073566;28;20028;-83
2022/01/11 02:19:56;;;;;;;22.73;10.60;;;;;;;;;;5081406;28;20066;-85
2022/01/11 02:22:25;;;;;;;25.42;12.52;;;;;;;;;;5076066;28;20038;-85
2022/01/11 02:24:52;;;;;;;21.92;10.85;;;;;;;;;;5080162;28;20383;-85
2022/01/11 02:27:17;;;;;;;23.55;11.75;;;;;;;;;;5075354;28;20051;-88
2022/01/11 02:29:43;;;;;;;21.67;10.88;;;;;;;;;;5079823;28;20056;-85
2022/01/11 02:32:09;;;;;;;25.17;12.02;;;;;;;;;;5074154;28;20024;-86
2022/01/11 02:34:35;;;;;;;23.60;11.80;;;;;;;;;;5080954;28;20016;-88
2022/01/11 02:37:00;;;;;;;21.80;10.63;;;;;;;;;;5071801;28;20360;-84
2022/01/11 02:39:25;;;;;;;23.23;10.43;;;;;;;;;;5075713;28;20085;-89
2022/01/11 02:41:54;;;;;;;20.95;10.70;;;;;;;;;;5080736;28;20020;-88
2022/01/11 02:44:20;;;;;;;21.90;11.35;;;;;;;;;;5077985;28;20485;-88
2022/01/11 02:46:45;;;;;;;24.73;11.45;;;;;;;;;;5074403;28;20028;-83
2022/01/11 02:49:11;;;;;;;25.75;11.55;;;;;;;;;;5080297;28;20031;-85
2022/01/11 02:51:36;;;;;;;23.45;11.10;;;;;;;;;;5081480;28;20023;-85
2022/01/11 02:54:04;;;;;;;24.40;12.30;;;;;;;;;;5078994;28;20148;-86
2022/01/11 02:56:30;;;;;;;25.35;12.00;;;;;;;;;;5073649;28;20017;-85
2022/01/11 02:58:55;;;;;;;22.75;11.40;;;;;;;;;;5073017;28;20036;-84
2022/01/11 03:01:21;;;;;;;24.05;11.93;;;;;;;;;;5080202;28;20036;-84
2022/01/11 03:03:47;;;;;;;23.33;11.10;;;;;;;;;;5077098;28;20500;-88
2022/01/11 03:06:13;;;;;;;23.23;11.68;;;;;;;;;;5083981;28;20504;-84
2022/01/11 03:08:43;;;;;;;28.27;13.10;;;;;;;;;;5074836;28;20021;-86
2022/01/11 03:11:11;;;;;;;23.40;10.98;;;;;;;;;;5085708;28;20071;-87
2022/01/11 03:13:38;;;;;;;23.63;11.30;;;;;;;;;;5081017;28;20031;-88
2022/01/11 03:16:04;;;;;;;23.08;11.25;;;;;;;;;;5075256;28;20115;-85
2022/01/11 03:18:30;;;;;;;22.95;11.80;;;;;;;;;;5070282;28;20028;-85
2022/01/11 03:20:56;;;;;;;26.45;13.18;;;;;;;;;;5075952;28;20024;-84
2022/01/11 03:23:22;;;;;;;23.75;10.77;;;;;;;;;;5078150;28;20020;-89
2022/01/11 03:25:51;;;;;;;22.65;12.05;;;;;;;;;;5081886;28;20114;-87
2022/01/11 03:28:17;;;;;;;25.52;11.32;;;;;;;;;;5081551;28;20031;-89
2022/01/11 03:30:43;;;;;;;26.10;13.15;;;;;;;;;;5085811;28;20371;-87
2022/01/11 03:33:08;;;;;;;25.50;12.23;;;;;;;;;;5087633;28;20038;-88
2022/01/11 03:35:35;;;;;;;27.50;12.52;;;;;;;;;;5082369;28;20509;-83
2022/01/11 03:38:04;;;;;;;28.65;12.88;;;;;;;;;;5101752;28;20028;-88
2022/01/11 03:40:29;;;;;;;23.38;10.82;;;;;;;;;;5100503;28;20024;-83
2022/01/11 03:42:55;;;;;;;26.83;12.02;;;;;;;;;;5087220;28;20043;-87
2022/01/11 03:45:21;;;;;;;27.55;12.75;;;;;;;;;;5084350;28;20050;-83
2022/01/11 03:47:48;;;;;;;24.45;12.25;;;;;;;;;;5079218;28;20112;-88
2022/01/11 03:50:13;;;;;;;25.92;12.07;;;;;;;;;;5081325;28;20020;-84
2022/01/11 03:52:39;;;;;;;26.98;12.65;;;;;;;;;;5081862;28;20036;-88
2022/01/11 03:55:12;;;;;;;24.70;11.90;;;;;;;;;;5103958;28;20022;-85
2022/01/11 03:57:39;;;;;;;26.10;13.27;;;;;;;;;;5083796;28;20039;-85
2022/01/11 04:00:14;;;;;;;25.23;12.90;;;;;;;;;;5083139;28;20475;-86
2022/01/11 04:02:41;;;;;;;25.10;11.82;;;;;;;;;;5082602;28;20597;-88
2022/01/11 04:05:07;;;;;;;28.70;13.10;;;;;;;;;;5082590;28;20666;-86
2022/01/11 04:07:33;;;;;;;28.58;12.13;;;;;;;;;;5086598;28;20051;-85
2022/01/11 04:09:58;;;;;;;27.17;12.43;;;;;;;;;;5091804;28;20131;-88
2022/01/11 04:12:24;;;;;;;23.58;11.93;;;;;;;;;;5103682;28;20027;-84
2022/01/11 04:14:50;;;;;;;27.55;12.85;;;;;;;;;;5093640;28;20024;-85
2022/01/11 04:17:16;;;;;;;27.02;12.43;;;;;;;;;;5091249;28;20152;-83
2022/01/11 04:19:42;;;;;;;26.02;12.63;;;;;;;;;;5090326;28;20115;-89
2022/01/11 04:22:07;;;;;;;30.02;13.98;;;;;;;;;;5086350;28;20389;-85
2022/01/11 04:24:33;;;;;;;27.52;12.60;;;;;;;;;;5091363;28;20046;-88
2022/01/11 04:26:58;;;;;;;28.23;12.65;;;;;;;;;;5101392;28;20082;-83
2022/01/11 04:29:24;;;;;;;26.20;12.23;;;;;;;;;;5084526;28;20053;-85
2022/01/11 04:31:49;;;;;;;27.48;13.48;;;;;;;;;;5082890;28;20029;-85
2022/01/11 04:34:15;;;;;;;28.67;13.15;;;;;;;;;;5082339;28;20031;-83
2022/01/11 04:36:40;;;;;;;28.92;13.80;;;;;;;;;;5085408;28;20524;-87
2022/01/11 04:39:09;;;;;;;29.58;13.07;;;;;;;;;;5087504;28;20033;-85
2022/01/11 04:41:35;;;;;;;24.58;12.30;;;;;;;;;;5079755;28;20075;-84
2022/01/11 04:44:00;;;;;;;27.60;11.77;;;;;;;;;;5100421;28;20373;-85
2022/01/11 04:46:26;;;;;;;27.40;12.48;;;;;;;;;;5104659;28;20035;-85
2022/01/11 04:48:53;;;;;;;29.20;13.00;;;;;;;;;;5083231;28;20031;-88
2022/01/11 04:51:20;;;;;;;30.65;14.25;;;;;;;;;;5100132;28;20032;-83
2022/01/11 04:53:46;;;;;;;28.17;13.10;;;;;;;;;;5102395;28;20023;-83
2022/01/11 04:56:12;;;;;;;32.13;14.48;;;;;;;;;;5100092;28;20055;-83
2022/01/11 04:58:37;;;;;;;28.65;13.68;;;;;;;;;;5085588;28;20489;-85
2022/01/11 05:01:02;;;;;;;29.58;13.65;;;;;;;;;;5083037;28;20047;-85
2022/01/11 05:03:28;;;;;;;28.70;12.95;;;;;;;;;;5081739;28;20059;-84
2022/01/11 05:05:53;;;;;;;32.38;13.65;;;;;;;;;;5077919;28;20024;-83
2022/01/11 05:08:19;;;;;;;32.58;14.38;;;;;;;;;;5087934;28;20024;-85
2022/01/11 05:10:44;;;;;;;27.67;12.88;;;;;;;;;;5083916;28;20038;-83
2022/01/11 05:13:15;;;;;;;29.42;13.00;;;;;;;;;;5101506;28;20381;-85
2022/01/11 05:15:41;;;;;;;28.95;13.80;;;;;;;;;;5082835;28;20024;-89
2022/01/11 05:18:08;;;;;;;28.77;13.80;;;;;;;;;;5079158;28;20136;-88
2022/01/11 05:20:34;;;;;;;28.05;13.57;;;;;;;;;;5085915;28;20509;-83
2022/01/11 05:23:00;;;;;;;29.40;13.85;;;;;;;;;;5105055;28;20038;-88
2022/01/11 05:25:25;;;;;;;30.13;14.88;;;;;;;;;;5087110;28;20071;-85
2022/01/11 05:27:51;;;;;;;27.30;12.45;;;;;;;;;;5085851;28;20042;-84
2022/01/11 05:30:16;;;;;;;27.25;13.68;;;;;;;;;;5107014;28;20062;-84
2022/01/11 05:32:42;;;;;;;29.35;13.00;;;;;;;;;;5087736;28;20077;-88
2022/01/11 05:35:10;;;;;;;30.17;13.77;;;;;;;;;;5091729;28;20524;-85
2022/01/11 05:37:36;;;;;;;29.70;12.35;;;;;;;;;;5085637;28;20128;-83
2022/01/11 05:40:03;;;;;;;28.00;13.52;;;;;;;;;;5097568;28;20035;-85
2022/01/11 05:42:29;;;;;;;26.17;12.32;;;;;;;;;;5080272;28;20044;-85
2022/01/11 05:44:54;;;;;;;28.40;13.23;;;;;;;;;;5087404;28;20092;-83
2022/01/11 05:47:20;;;;;;;27.38;11.85;;;;;;;;;;5087073;28;20028;-85
2022/01/11 05:49:45;;;;;;;30.33;14.23;;;;;;;;;;5084842;28;20027;-87
2022/01/11 05:52:10;;;;;;;30.88;13.38;;;;;;;;;;5082044;28;20390;-89
2022/01/11 05:54:36;;;;;;;27.58;13.75;;;;;;;;;;5083670;28;20163;-83
2022/01/11 05:57:02;;;;;;;29.40;13.45;;;;;;;;;;5076134;28;20080;-89
2022/01/11 05:59:27;;;;;;;27.85;13.50;;;;;;;;;;5079731;28;20038;-85
2022/01/11 06:01:52;;;;;;;27.13;12.52;;;;;;;;;;5096233;27;20501;-83
2022/01/11 06:04:19;;;;;;;27.75;13.63;;;;;;;;;;5077218;28;20061;-85
2022/01/11 06:06:45;;;;;;;25.45;13.50;;;;;;;;;;5091713;28;20032;-85
2022/01/11 06:09:10;;;;;;;25.48;12.73;;;;;;;;;;5078256;28;20084;-85
2022/01/11 06:11:36;;;;;;;26.70;12.38;;;;;;;;;;5093106;27;20087;-85
2022/01/11 06:14:01;;;;;;;27.27;13.13;;;;;;;;;;5077740;28;20040;-85
2022/01/11 06:16:26;;;;;;;31.45;13.52;;;;;;;;;;5087686;28;20438;-88
2022/01/11 06:18:52;;;;;;;31.95;14.00;;;;;;;;;;5097813;28;20038;-83
2022/01/11 06:21:18;;;;;;;27.85;13.40;;;;;;;;;;5073662;28;20032;-83
2022/01/11 06:23:45;;;;;;;27.17;12.88;;;;;;;;;;5083371;28;20527;-88
2022/01/11 06:26:11;;;;;;;25.75;12.98;;;;;;;;;;5082809;28;20051;-88
2022/01/11 06:28:37;;;;;;;29.67;13.38;;;;;;;;;;5079927;28;20071;-85
2022/01/11 06:31:02;;;;;;;28.77;13.48;;;;;;;;;;5086061;28;20478;-88
2022/01/11 06:33:27;;;;;;;26.33;12.75;;;;;;;;;;5079088;28;20024;-87
2022/01/11 06:35:55;;;;;;;26.63;13.40;;;;;;;;;;5081031;28;20560;-88
2022/01/11 06:38:20;;;;;;;30.75;14.70;;;;;;;;;;5092978;28;20055;-82
2022/01/11 06:40:46;;;;;;;26.60;12.63;;;;;;;;;;5086752;27;20055;-84
2022/01/11 06:43:12;;;;;;;28.98;13.63;;;;;;;;;;5079553;28;20035;-88
2022/01/11 06:45:40;;;;;;;27.17;13.57;;;;;;;;;;5102692;28;20034;-82
2022/01/11 06:48:06;;;;;;;26.75;14.07;;;;;;;;;;5082209;28;20118;-85
2022/01/11 06:50:32;;;;;;;30.25;13.68;;;;;;;;;;5087645;27;20027;-83
2022/01/11 06:52:59;;;;;;;27.30;13.63;;;;;;;;;;5075658;28;20393;-85
2022/01/11 06:55:24;;;;;;;27.17;13.57;;;;;;;;;;5082562;27;20533;-85
2022/01/11 06:57:50;;;;;;;29.23;13.75;;;;;;;;;;5077447;28;20028;-88
2022/01/11 07:00:16;;;;;;;31.27;14.82;;;;;;;;;;5099383;28;20054;-84
2022/01/11 07:02:41;;;;;;;28.20;14.00;;;;;;;;;;5099947;28;20028;-85
2022/01/11 07:05:07;;;;;;;28.15;13.27;;;;;;;;;;5078755;28;20032;-83
2022/01/11 07:07:33;;;;;;;28.83;13.32;;;;;;;;;;5073823;28;20084;-83
2022/01/11 07:09:59;;;;;;;32.45;14.82;;;;;;;;;;5095027;28;20031;-86
2022/01/11 07:12:24;;;;;;;29.58;14.18;;;;;;;;;;5076935;28;20348;-85
2022/01/11 07:14:50;;;;;;;29.70;14.05;;;;;;;;;;5092682;28;20485;-83
2022/01/11 07:17:15;;;;;;;28.00;13.73;;;;;;;;;;5078536;28;20035;-85
2022/01/11 07:19:41;;;;;;;25.33;13.00;;;;;;;;;;5075199;28;20490;-88
2022/01/11 07:22:07;;;;;;;29.23;13.70;;;;;;;;;;5076371;28;20031;-88
2022/01/11 07:24:32;;;;;;;25.92;13.77;;;;;;;;;;5081097;28;20391;-83
2022/01/11 07:27:01;;;;;;;24.45;13.15;;;;;;;;;;5082084;28;20118;-83
2022/01/11 07:29:26;;;;;;;24.13;12.25;;;;;;;;;;5075082;28;20024;-85
2022/01/11 07:31:52;;;;;;;26.15;12.73;;;;;;;;;;5099191;28;20032;-85
2022/01/11 07:34:17;;;;;;;27.13;13.27;;;;;;;;;;5108911;28;21722;-85
2022/01/11 07:36:43;;;;;;;27.42;12.52;;;;;;;;;;5084898;28;20068;-85
2022/01/11 07:39:09;;;;;;;22.83;12.25;;;;;;;;;;5080673;28;20035;-88
2022/01/11 07:41:35;;;;;;;27.40;12.75;;;;;;;;;;5102101;27;20437;-83
2022/01/11 07:44:01;;;;;;;25.50;12.85;;;;;;;;;;5090852;28;20020;-84
2022/01/11 07:46:26;;;;;;;25.33;12.35;;;;;;;;;;5094383;28;20023;-84
2022/01/11 07:48:52;;;;;;;27.48;13.60;;;;;;;;;;5091101;28;20028;-84
2022/01/11 07:51:17;;;;;;;24.83;12.43;;;;;;;;;;5091116;28;20020;-84
2022/01/11 07:53:43;;;;;;;25.67;13.02;;;;;;;;;;5105791;28;20028;-84
2022/01/11 07:56:09;;;;;;;24.02;12.48;;;;;;;;;;5109408;28;20100;-87
2022/01/11 07:58:35;;;;;;;25.73;12.98;;;;;;;;;;5103202;28;20677;-84
2022/01/11 08:01:00;;;;;;;23.50;12.20;;;;;;;;;;5088915;28;20333;-82
2022/01/11 08:03:25;;;;;;;23.80;11.82;;;;;;;;;;5094617;28;20385;-88
2022/01/11 08:05:52;;;;;;;24.85;12.07;;;;;;;;;;5093650;28;20036;-84
2022/01/11 08:08:17;;;;;;;27.98;12.57;;;;;;;;;;5094848;28;20074;-84
2022/01/11 08:10:43;;;;;;;23.63;12.57;;;;;;;;;;5090361;28;20059;-84
2022/01/11 08:13:10;;;;;;;24.65;12.38;;;;;;;;;;5105598;28;20027;-83
2022/01/11 08:15:37;;;;;;;22.17;11.80;;;;;;;;;;5081669;28;20085;-86
2022/01/11 08:18:05;;;;;;;26.08;12.38;;;;;;;;;;5075197;28;20032;-84
2022/01/11 08:20:31;;;;;;;19.63;10.90;;;;;;;;;;5090074;28;20019;-84
2022/01/11 08:22:56;;;;;;;21.08;11.07;;;;;;;;;;5088084;28;20564;-88
2022/01/11 08:25:23;;;;;;;22.25;11.50;;;;;;;;;;5102876;28;20044;-88
2022/01/11 08:27:49;;;;;;;23.73;11.10;;;;;;;;;;5103611;28;20023;-82
2022/01/11 08:30:15;;;;;;;22.65;12.70;;;;;;;;;;5085784;28;20085;-85
2022/01/11 08:32:40;;;;;;;20.55;11.20;;;;;;;;;;5101256;28;20023;-82
2022/01/11 08:35:06;;;;;;;22.75;10.98;;;;;;;;;;5110365;28;20019;-84
2022/01/11 08:37:32;;;;;;;21.20;11.70;;;;;;;;;;5102546;28;20028;-83
2022/01/11 08:39:57;;;;;;;20.48;11.48;;;;;;;;;;5091199;28;20092;-86
2022/01/11 08:42:23;;;;;;;22.05;11.77;;;;;;;;;;5091594;28;20536;-85
2022/01/11 08:44:51;;;;;;;19.48;11.25;;;;;;;;;;5085673;28;20063;-84
2022/01/11 08:47:17;;;;;;;20.55;11.65;;;;;;;;;;5092906;28;20023;-85
2022/01/11 08:49:43;;;;;;;20.80;11.45;;;;;;;;;;5102923;28;20092;-88
2022/01/11 08:52:10;;;;;;;22.00;11.32;;;;;;;;;;5088702;28;20118;-87
2022/01/11 08:54:36;;;;;;;21.10;11.20;;;;;;;;;;5088893;28;20035;-85
2022/01/11 08:57:02;;;;;;;21.80;11.32;;;;;;;;;;5093736;28;20016;-89
2022/01/11 08:59:27;;;;;;;19.77;11.40;;;;;;;;;;5088376;28;20172;-82
2022/01/11 09:01:58;;;;;;;20.27;10.60;;;;;;;;;;5087630;28;20115;-84
2022/01/11 09:04:24;;;;;;;24.17;11.38;;;;;;;;;;5085672;28;20028;-86
2022/01/11 09:06:51;;;;;;;21.42;10.25;;;;;;;;;;5085374;28;20024;-85
2022/01/11 09:09:17;;;;;;;20.67;10.55;;;;;;;;;;5103856;28;20036;-87
2022/01/11 09:11:43;;;;;;;19.85;10.48;;;;;;;;;;5091675;28;20024;-87
2022/01/11 09:14:10;;;;;;;20.80;11.25;;;;;;;;;;5088233;28;20016;-87
2022/01/11 09:16:35;;;;;;;20.77;10.10;;;;;;;;;;5086605;28;20497;-88
2022/01/11 09:19:00;;;;;;;19.17;10.77;;;;;;;;;;5088783;28;20032;-87
2022/01/11 09:21:27;;;;;;;20.73;11.02;;;;;;;;;;5107947;28;20024;-88
2022/01/11 09:23:53;;;;;;;21.48;10.02;;;;;;;;;;5080876;28;20132;-87
2022/01/11 09:26:18;;;;;;;21.10;9.80;;;;;;;;;;5080223;28;20032;-84
2022/01/11 09:28:44;;;;;;;18.08;10.25;;;;;;;;;;5079943;28;20070;-85
2022/01/11 09:31:10;;;;;;;19.52;10.68;;;;;;;;;;5077925;28;20393;-84
2022/01/11 09:33:35;;;;;;;22.30;10.70;;;;;;;;;;5077833;28;20111;-85
2022/01/11 09:36:00;;;;;;;21.38;11.35;;;;;;;;;;5080109;28;21373;-85
2022/01/11 09:38:27;;;;;;;21.58;11.35;;;;;;;;;;5086688;28;20432;-88
2022/01/11 09:40:55;;;;;;;20.77;10.95;;;;;;;;;;5082199;28;20114;-84
2022/01/11 09:43:22;;;;;;;21.75;10.73;;;;;;;;;;5078552;28;20478;-84
2022/01/11 09:45:49;;;;;;;19.58;11.05;;;;;;;;;;5077681;28;20020;-85
2022/01/11 09:48:18;;;;;;;19.85;10.85;;;;;;;;;;5077349;28;20032;-85
2022/01/11 09:50:43;;;;;;;19.83;10.88;;;;;;;;;;5079895;28;20017;-83
2022/01/11 09:53:08;;;;;;;20.33;10.45;;;;;;;;;;5082736;28;20039;-84
2022/01/11 09:55:34;;;;;;;22.52;11.52;;;;;;;;;;5082485;28;20032;-84
2022/01/11 09:57:59;;;;;;;23.95;11.13;;;;;;;;;;5079874;28;20028;-86
2022/01/11 10:00:25;;;;;;;21.90;11.13;;;;;;;;;;5082582;28;20489;-87
2022/01/11 10:02:50;;;;;;;23.02;12.85;;;;;;;;;;5078581;28;20029;-86
2022/01/11 10:05:16;;;;;;;19.95;11.00;;;;;;;;;;5083127;28;20064;-85
2022/01/11 10:07:42;;;;;;;24.05;12.20;;;;;;;;;;5081766;28;20036;-83
2022/01/11 10:10:20;;;;;;;21.55;12.20;;;;;;;;;;5080804;28;20398;-84
2022/01/11 10:12:49;;;;;;;22.52;11.63;;;;;;;;;;5073491;28;20032;-87
2022/01/11 10:15:24;;;;;;;22.42;11.52;;;;;;;;;;5084726;28;20074;-85
2022/01/11 10:17:49;;;;;;;20.98;11.57;;;;;;;;;;5079892;28;20017;-89
2022/01/11 10:20:20;;;;;;;21.13;11.40;;;;;;;;;;5083955;28;20060;-83
2022/01/11 10:22:48;;;;;;;23.17;12.95;;;;;;;;;;5083454;28;20028;-88
2022/01/11 10:25:13;;;;;;;20.75;11.88;;;;;;;;;;5082641;28;20067;-88
2022/01/11 10:27:39;;;;;;;22.45;11.77;;;;;;;;;;5083308;28;20068;-85
2022/01/11 10:30:10;;;;;;;20.35;11.07;;;;;;;;;;5089095;28;20135;-83
2022/01/11 10:32:38;;;;;;;17.15;9.52;;;;;;;;;;5079203;28;20444;-85
2022/01/11 10:35:13;;;;;;;19.58;10.57;;;;;;;;;;5083296;28;20032;-83
2022/01/11 10:37:41;;;;;;;18.35;10.52;;;;;;;;;;5081327;28;20024;-87
2022/01/11 10:40:10;;;;;;;23.67;11.32;;;;;;;;;;5084447;28;20046;-87
2022/01/11 10:42:41;;;;;;;23.92;11.35;;;;;;;;;;5078025;28;20033;-85
2022/01/11 10:45:12;;;;;;;20.30;11.52;;;;;;;;;;5082868;28;20487;-85
2022/01/11 10:47:41;;;;;;;21.20;11.80;;;;;;;;;;5085787;28;20123;-86
2022/01/11 10:50:11;;;;;;;21.27;11.82;;;;;;;;;;5087551;28;20035;-85
2022/01/11 10:52:37;;;;;;;20.42;11.27;;;;;;;;;;5083197;28;20085;-84
2022/01/11 10:55:05;;;;;;;19.85;10.73;;;;;;;;;;5086025;28;20032;-84
2022/01/11 10:57:33;;;;;;;22.40;11.02;;;;;;;;;;5087390;28;20024;-87
2022/01/11 11:00:19;;;;;;;20.40;11.23;;;;;;;;;;5085632;28;20032;-83
2022/01/11 11:03:02;;;;;;;20.00;10.38;;;;;;;;;;5085856;28;20064;-87
2022/01/11 11:05:36;;;;;;;19.60;10.40;;;;;;;;;;5081745;28;20035;-83
2022/01/11 11:08:27;;;;;;;19.23;10.27;;;;;;;;;;5081097;28;20037;-84
2022/01/11 11:10:55;;;;;;;20.30;11.52;;;;;;;;;;5082344;28;20040;-87
2022/01/11 11:13:29;;;;;;;19.05;10.65;;;;;;;;;;5085987;28;20024;-89
2022/01/11 11:16:12;;;;;;;23.15;11.93;;;;;;;;;;5084921;28;20035;-83
2022/01/11 11:18:40;;;;;;;22.08;11.15;;;;;;;;;;5085839;28;20036;-87
2022/01/11 11:21:23;;;;;;;20.50;10.98;;;;;;;;;;5084862;28;20107;-88
2022/01/11 11:24:03;;;;;;;21.45;11.05;;;;;;;;;;5082322;28;20049;-84
2022/01/11 11:26:49;;;;;;;20.90;11.40;;;;;;;;;;5079051;28;20516;-86
2022/01/11 11:29:17;;;;;;;17.60;10.45;;;;;;;;;;5076635;28;20036;-83
2022/01/11 11:31:42;;;;;;;20.63;11.65;;;;;;;;;;5080826;28;20528;-88
2022/01/11 11:34:09;;;;;;;20.55;11.15;;;;;;;;;;5077175;28;20025;-90
2022/01/11 11:36:37;;;;;;;20.20;11.13;;;;;;;;;;5078277;28;20172;-87
2022/01/11 11:39:13;;;;;;;21.63;11.57;;;;;;;;;;5077703;28;21798;-86
2022/01/11 11:41:47;;;;;;;19.25;11.23;;;;;;;;;;5079793;28;20507;-89
2022/01/11 11:44:16;;;;;;;19.70;11.80;;;;;;;;;;5079444;28;20028;-83
2022/01/11 11:46:53;;;;;;;21.20;11.32;;;;;;;;;;5073646;28;20036;-84
2022/01/11 11:49:48;;;;;;;20.00;10.88;;;;;;;;;;5080122;28;20031;-83
2022/01/11 11:52:37;;;;;;;20.27;11.68;;;;;;;;;;5076983;28;20054;-86
2022/01/11 11:55:05;;;;;;;19.17;11.25;;;;;;;;;;5076819;28;20032;-88
2022/01/11 11:57:33;;;;;;;20.38;11.20;;;;;;;;;;5081420;28;20024;-85
2022/01/11 12:00:15;;;;;;;20.55;10.95;;;;;;;;;;5076566;28;20536;-85
2022/01/11 12:02:52;;;;;;;19.92;11.45;;;;;;;;;;5074877;28;20063;-89
2022/01/11 12:05:37;;;;;;;22.60;11.38;;;;;;;;;;5069712;28;20436;-84
2022/01/11 12:08:37;;;;;;;20.33;11.30;;;;;;;;;;5098755;28;20039;-86
2022/01/11 12:11:10;;;;;;;20.70;10.95;;;;;;;;;;5074460;28;20032;-84
2022/01/11 12:13:43;;;;;;;18.65;11.23;;;;;;;;;;5079088;28;20035;-87
2022/01/11 12:16:38;;;;;;;17.13;10.00;;;;;;;;;;5081051;28;20070;-85
2022/01/11 12:19:34;;;;;;;19.25;9.82;;;;;;;;;;5082329;28;20386;-88
2022/01/11 12:22:08;;;;;;;19.25;10.02;;;;;;;;;;5078763;28;20028;-88
2022/01/11 12:24:35;;;;;;;20.20;10.90;;;;;;;;;;5076451;28;20044;-88
2022/01/11 12:27:00;;;;;;;20.58;10.40;;;;;;;;;;5081655;28;20070;-88
2022/01/11 12:29:27;;;;;;;18.58;10.88;;;;;;;;;;5083416;28;20059;-85
2022/01/11 12:31:55;;;;;;;17.77;9.48;;;;;;;;;;5078561;28;20060;-85
2022/01/11 12:34:46;;;;;;;17.63;10.05;;;;;;;;;;5086644;28;20410;-84
2022/01/11 12:37:30;;;;;;;16.88;10.02;;;;;;;;;;5080672;28;20047;-84
2022/01/11 12:40:24;;;;;;;16.85;9.60;;;;;;;;;;5079292;28;20103;-88
2022/01/11 12:43:02;;;;;;;18.88;9.63;;;;;;;;;;5075907;28;20029;-87
2022/01/11 12:45:45;;;;;;;19.15;9.85;;;;;;;;;;5082440;28;20115;-86
2022/01/11 12:48:11;;;;;;;20.08;9.90;;;;;;;;;;5090990;28;20474;-86
2022/01/11 12:50:59;;;;;;;17.27;9.95;;;;;;;;;;5083802;28;20115;-85
2022/01/11 12:53:24;;;;;;;18.15;9.57;;;;;;;;;;5074120;28;20153;-85
2022/01/11 12:55:56;;;;;;;17.70;9.73;;;;;;;;;;5080893;28;20546;-85
2022/01/11 12:58:21;;;;;;;19.35;10.02;;;;;;;;;;5079337;28;20024;-86
2022/01/11 13:00:54;;;;;;;17.27;9.77;;;;;;;;;;5088653;28;20456;-88
2022/01/11 13:03:19;;;;;;;19.70;9.98;;;;;;;;;;5085906;28;20089;-86
2022/01/11 13:05:45;;;;;;;17.75;9.45;;;;;;;;;;5082579;28;20024;-86
2022/01/11 13:08:10;;;;;;;19.50;9.63;;;;;;;;;;5080014;28;20025;-85
2022/01/11 13:10:36;;;;;;;19.45;10.05;;;;;;;;;;5081720;28;20300;-85
2022/01/11 13:13:11;;;;;;;14.35;8.23;;;;;;;;;;5081273;28;20035;-84
2022/01/11 13:15:40;;;;;;;16.42;8.93;;;;;;;;;;5074373;28;20533;-87
2022/01/11 13:18:09;;;;;;;16.42;8.88;;;;;;;;;;5075712;28;20038;-87
2022/01/11 13:20:44;;;;;;;17.95;9.65;;;;;;;;;;5074976;28;20043;-85
2022/01/11 13:23:20;;;;;;;16.73;8.93;;;;;;;;;;5078768;28;20051;-86
2022/01/11 13:25:58;;;;;;;16.15;9.38;;;;;;;;;;5071946;28;20033;-88
2022/01/11 13:28:46;;;;;;;15.57;9.13;;;;;;;;;;5064703;28;20029;-88
2022/01/11 13:31:20;;;;;;;18.55;9.32;;;;;;;;;;5055135;28;20855;-87
2022/01/11 13:33:55;;;;;;;17.42;9.30;;;;;;;;;;5067742;28;20038;-84
2022/01/11 13:36:27;;;;;;;15.85;8.95;;;;;;;;;;5066983;28;20032;-88
2022/01/11 13:38:56;;;;;;;17.13;9.60;;;;;;;;;;5067355;28;20021;-84
2022/01/11 13:41:32;;;;;;;16.83;9.48;;;;;;;;;;5060599;28;20357;-85
2022/01/11 13:43:59;;;;;;;16.50;9.25;;;;;;;;;;5064998;28;20060;-87
2022/01/11 13:46:27;;;;;;;16.15;9.38;;;;;;;;;;5064280;28;20071;-84
2022/01/11 13:48:54;;;;;;;15.35;8.52;;;;;;;;;;5065190;28;20036;-86
2022/01/11 13:51:24;;;;;;;18.67;9.35;;;;;;;;;;5068049;28;20033;-85
2022/01/11 13:54:06;;;;;;;16.23;8.32;;;;;;;;;;5065648;28;20025;-83
2022/01/11 13:56:34;;;;;;;15.43;8.27;;;;;;;;;;5062774;28;20034;-87
2022/01/11 13:59:00;;;;;;;16.75;8.38;;;;;;;;;;5067689;28;20106;-86
2022/01/11 14:01:27;;;;;;;13.85;7.55;;;;;;;;;;5059530;28;20025;-86
2022/01/11 14:04:18;;;;;;;15.02;7.82;;;;;;;;;;5059745;28;20029;-86
2022/01/11 14:06:50;;;;;;;14.10;7.18;;;;;;;;;;5062309;28;20036;-86
2022/01/11 14:09:33;;;;;;;19.10;8.23;;;;;;;;;;5063924;28;20025;-86
2022/01/11 14:12:07;;;;;;;15.82;8.05;;;;;;;;;;5067849;28;20046;-88
2022/01/11 14:14:33;;;;;;;13.43;7.45;;;;;;;;;;5067498;28;20056;-86
2022/01/11 14:17:11;;;;;;;12.18;6.88;;;;;;;;;;5065926;28;20028;-87
2022/01/11 14:20:00;;;;;;;13.63;7.07;;;;;;;;;;5059614;28;20083;-88
2022/01/11 14:22:48;;;;;;;14.90;7.43;;;;;;;;;;5063283;28;20043;-86
2022/01/11 14:25:30;;;;;;;13.50;6.95;;;;;;;;;;5061702;28;20050;-86